Time;durP1;ratioP1;P1;durP2;ratioP2;P2;SDS_P1;SDS_P2;PMS_P1;PMS_P2;Temp;Humidity;BMP_temperature;BMP_pressure;BME280_temperature;BME280_humidity;BME280_pressure;Samples;Min_cycle;Max_cycle;Signal;HPM_P1;HPM_P2
2022/08/03 00:02:23;;;;;;;9.10;3.80;;;;;;;18.82;88.85;101389.59;5066756;28;20040;-90
2022/08/03 00:04:48;;;;;;;8.07;3.53;;;;;;;18.92;88.59;101386.16;5064649;28;20040;-89
2022/08/03 00:07:14;;;;;;;7.47;3.93;;;;;;;18.71;89.01;101394.09;5066635;28;20498;-89
2022/08/03 00:09:40;;;;;;;10.43;3.60;;;;;;;18.71;88.98;101387.75;5064604;28;20608;-90
2022/08/03 00:12:05;;;;;;;9.73;3.87;;;;;;;18.73;88.76;101382.88;5066473;28;20048;-90
2022/08/03 00:14:31;;;;;;;9.27;3.63;;;;;;;18.61;89.31;101382.16;5066710;28;20078;-90
2022/08/03 00:16:56;;;;;;;6.33;3.73;;;;;;;18.68;89.36;101389.09;5065985;28;20036;-89
2022/08/03 00:19:22;;;;;;;11.10;4.23;;;;;;;18.67;89.45;101395.69;5067006;28;20391;-89
2022/08/03 00:21:47;;;;;;;8.67;3.63;;;;;;;18.59;89.39;101387.03;5066168;28;20039;-90
2022/08/03 00:24:13;;;;;;;7.17;3.60;;;;;;;18.54;89.98;101396.03;5066205;28;20032;-88
2022/08/03 00:26:38;;;;;;;10.33;3.97;;;;;;;18.57;90.54;101387.31;5066981;28;20064;-88
2022/08/03 00:29:03;;;;;;;10.67;3.87;;;;;;;18.66;90.24;101391.28;5065120;28;20165;-89
2022/08/03 00:31:29;;;;;;;8.13;3.93;;;;;;;18.66;89.51;101388.53;5066428;28;20109;-88
2022/08/03 00:33:54;;;;;;;11.33;4.13;;;;;;;18.59;89.66;101382.41;5066346;28;20036;-89
2022/08/03 00:36:19;;;;;;;8.33;3.70;;;;;;;18.65;89.40;101375.06;5064328;28;20044;-89
2022/08/03 00:38:45;;;;;;;9.13;4.07;;;;;;;18.56;89.49;101382.88;5064905;28;20032;-90
2022/08/03 00:41:10;;;;;;;10.07;4.27;;;;;;;18.50;89.64;101376.50;5065326;28;20468;-91
2022/08/03 00:43:35;;;;;;;12.80;4.50;;;;;;;18.57;90.20;101373.56;5065449;28;20134;-88
2022/08/03 00:46:00;;;;;;;11.13;4.30;;;;;;;18.53;90.44;101373.25;5063516;28;20123;-89
2022/08/03 00:48:26;;;;;;;13.10;4.40;;;;;;;18.55;89.99;101373.03;5065029;28;20154;-89
2022/08/03 00:50:52;;;;;;;10.03;4.70;;;;;;;18.59;90.67;101374.16;5065134;28;20167;-89
2022/08/03 00:53:18;;;;;;;10.77;4.33;;;;;;;18.57;90.04;101379.06;5066838;28;20028;-88
2022/08/03 00:55:44;;;;;;;12.27;4.57;;;;;;;18.45;89.99;101367.38;5072426;28;20071;-89
2022/08/03 00:58:10;;;;;;;11.27;4.63;;;;;;;18.44;90.84;101384.91;5065988;28;20143;-91
2022/08/03 01:00:37;;;;;;;10.50;4.53;;;;;;;18.37;91.05;101374.09;5064006;28;20576;-90
2022/08/03 01:03:07;;;;;;;10.30;4.37;;;;;;;18.36;91.15;101370.53;5065447;28;20036;-89
2022/08/03 01:05:43;;;;;;;11.33;4.70;;;;;;;18.33;91.72;101367.47;5064159;28;20036;-89
2022/08/03 01:08:46;;;;;;;9.87;4.63;;;;;;;18.35;91.50;101365.31;5065533;28;20082;-89
2022/08/03 01:11:31;;;;;;;7.90;4.40;;;;;;;18.37;90.69;101358.50;5064542;28;20047;-88
2022/08/03 01:14:05;;;;;;;11.23;5.17;;;;;;;18.34;91.95;101364.47;5062564;28;20042;-90
2022/08/03 01:16:34;;;;;;;;;;;;;;;18.45;88.78;101354.47;5065311;28;20044;-89
2022/08/03 01:19:06;;;;;;;8.47;5.23;;;;;;;18.37;90.94;101361.25;5064749;28;20046;-90
2022/08/03 01:21:39;;;;;;;8.50;4.97;;;;;;;18.31;91.47;101362.22;5063697;28;20176;-89
2022/08/03 01:24:04;;;;;;;10.03;4.50;;;;;;;18.32;91.24;101355.66;5065131;28;20122;-89
2022/08/03 01:26:52;;;;;;;11.03;5.17;;;;;;;18.34;90.94;101358.16;5065543;28;20369;-88
2022/08/03 01:29:56;;;;;;;12.40;5.37;;;;;;;18.32;90.94;101355.66;5065731;28;20046;-88
2022/08/03 01:32:32;;;;;;;12.63;5.77;;;;;;;18.25;91.81;101360.50;5065393;28;20036;-89
2022/08/03 01:35:05;;;;;;;11.27;5.70;;;;;;;18.30;92.19;101359.75;5064899;28;20213;-89
2022/08/03 01:37:46;;;;;;;11.83;5.80;;;;;;;18.22;91.60;101364.56;5063808;28;20257;-90
2022/08/03 01:40:14;;;;;;;11.93;5.23;;;;;;;18.21;91.52;101353.88;5065732;28;20027;-89
2022/08/03 01:42:41;;;;;;;13.90;5.60;;;;;;;18.25;91.95;101355.03;5064375;28;20064;-90
2022/08/03 01:45:09;;;;;;;15.53;6.00;;;;;;;18.21;92.91;101351.13;5065262;28;20036;-89
2022/08/03 01:47:35;;;;;;;12.70;6.03;;;;;;;18.23;92.98;101352.50;5064193;28;20695;-89
2022/08/03 01:50:03;;;;;;;12.70;5.60;;;;;;;18.17;92.68;101349.97;5065933;28;20090;-89
2022/08/03 01:52:30;;;;;;;11.60;5.70;;;;;;;18.16;92.62;101346.38;5064860;28;20072;-90
2022/08/03 01:54:58;;;;;;;12.07;5.87;;;;;;;18.20;92.67;101353.00;5064763;28;20467;-89
2022/08/03 01:57:26;;;;;;;12.20;6.10;;;;;;;18.12;93.13;101347.13;5065319;28;20050;-89
2022/08/03 01:59:55;;;;;;;16.73;6.73;;;;;;;18.30;96.42;101340.53;5064735;28;20041;-90
2022/08/03 02:02:23;;;;;;;17.03;6.57;;;;;;;18.37;96.93;101344.78;5064387;28;20527;-89
2022/08/03 02:04:51;;;;;;;17.57;7.43;;;;;;;18.39;98.08;101348.09;5066038;28;20039;-89
2022/08/03 02:07:18;;;;;;;11.60;5.90;;;;;;;18.23;95.48;101343.44;5065191;28;20128;-89
2022/08/03 02:09:47;;;;;;;15.83;6.07;;;;;;;18.34;93.68;101341.69;5065714;28;20032;-89
2022/08/03 02:12:13;;;;;;;12.73;5.80;;;;;;;18.27;94.62;101352.03;5064820;28;20079;-88
2022/08/03 02:14:42;;;;;;;14.80;6.07;;;;;;;18.23;93.75;101344.28;5064850;28;20036;-89
2022/08/03 02:17:08;;;;;;;11.77;5.47;;;;;;;18.24;93.60;101334.16;5064193;28;20459;-90
2022/08/03 02:19:35;;;;;;;13.90;5.37;;;;;;;18.21;93.22;101345.63;5063335;28;20052;-89
2022/08/03 02:22:01;;;;;;;15.47;6.50;;;;;;;18.20;94.28;101344.78;5064072;28;20060;-90
2022/08/03 02:24:28;;;;;;;11.33;5.70;;;;;;;18.17;94.68;101339.00;5068287;28;20048;-90
2022/08/03 02:26:55;;;;;;;14.43;6.40;;;;;;;18.24;96.71;101336.91;5068422;28;20032;-89
2022/08/03 02:29:26;;;;;;;11.80;6.07;;;;;;;18.19;95.70;101329.41;5068609;28;20037;-88
2022/08/03 02:31:56;;;;;;;12.93;6.33;;;;;;;18.27;97.03;101346.53;5068407;28;20109;-89
2022/08/03 02:34:26;;;;;;;16.40;6.80;;;;;;;18.42;99.80;101337.69;5069368;28;20111;-90
2022/08/03 02:37:12;;;;;;;15.27;7.33;;;;;;;18.47;100.00;101330.38;5068767;28;20036;-90
2022/08/03 02:39:39;;;;;;;14.40;6.77;;;;;;;18.60;100.00;101323.66;5068424;28;20035;-91
2022/08/03 02:42:08;;;;;;;17.03;7.10;;;;;;;18.72;100.00;101326.31;5068233;28;20491;-89
2022/08/03 02:44:35;;;;;;;13.90;6.60;;;;;;;18.73;100.00;101323.28;5050192;28;20387;-89
2022/08/03 02:47:08;;;;;;;14.90;6.47;;;;;;;18.83;100.00;101330.00;5067926;28;20033;-89
2022/08/03 02:49:35;;;;;;;12.07;5.63;;;;;;;18.62;96.74;101328.91;5065296;28;20039;-88
2022/08/03 02:52:03;;;;;;;14.20;6.50;;;;;;;18.77;98.01;101325.53;5067668;28;20041;-89
2022/08/03 02:54:31;;;;;;;16.53;6.57;;;;;;;18.77;99.39;101325.53;5067118;28;20039;-88
2022/08/03 02:57:05;;;;;;;15.23;6.77;;;;;;;18.80;99.52;101328.59;5066540;28;20031;-88
2022/08/03 02:59:31;;;;;;;16.20;6.93;;;;;;;18.85;99.74;101322.34;5067042;28;20037;-89
2022/08/03 03:01:59;;;;;;;13.37;6.47;;;;;;;18.87;99.46;101333.91;5066463;28;20044;-88
2022/08/03 03:04:26;;;;;;;14.97;6.60;;;;;;;18.89;99.43;101329.03;5066659;28;20375;-88
2022/08/03 03:06:52;;;;;;;13.43;6.50;;;;;;;18.83;98.07;101328.06;5067695;28;20132;-91
2022/08/03 03:09:18;;;;;;;13.80;6.40;;;;;;;18.86;98.88;101334.97;5067724;28;20037;-89
2022/08/03 03:11:45;;;;;;;13.80;6.50;;;;;;;18.82;98.68;101333.81;5068391;28;20118;-89
2022/08/03 03:14:12;;;;;;;14.23;6.50;;;;;;;18.75;97.99;101327.72;5068338;28;20082;-91
2022/08/03 03:16:39;;;;;;;20.60;7.40;;;;;;;18.68;97.74;101325.97;5066262;28;20391;-89
2022/08/03 03:19:07;;;;;;;14.60;6.77;;;;;;;18.69;99.25;101318.59;5066931;28;20132;-89
2022/08/03 03:21:34;;;;;;;14.47;7.03;;;;;;;18.75;98.97;101335.94;5068081;28;20384;-88
2022/08/03 03:24:01;;;;;;;15.20;6.53;;;;;;;18.75;99.35;101334.00;5067645;28;20032;-89
2022/08/03 03:26:26;;;;;;;15.33;7.00;;;;;;;18.72;99.15;101326.31;5074312;28;20081;-90
2022/08/03 03:28:52;;;;;;;17.97;6.60;;;;;;;18.72;98.75;101327.13;5067401;28;20032;-91
2022/08/03 03:31:17;;;;;;;14.00;6.60;;;;;;;18.71;98.58;101330.13;5067805;28;21343;-89
2022/08/03 03:33:43;;;;;;;16.10;6.50;;;;;;;18.68;97.96;101319.66;5068150;28;20120;-89
2022/08/03 03:36:10;;;;;;;13.60;6.23;;;;;;;18.64;97.71;101337.72;5066799;28;20054;-90
2022/08/03 03:38:35;;;;;;;11.63;6.20;;;;;;;18.60;97.76;101331.91;5067522;28;20047;-89
2022/08/03 03:41:01;;;;;;;14.80;6.50;;;;;;;18.58;97.87;101320.38;5066303;28;20036;-88
2022/08/03 03:43:28;;;;;;;13.83;6.27;;;;;;;18.60;98.45;101328.34;5065673;28;20039;-88
2022/08/03 03:45:54;;;;;;;14.30;6.00;;;;;;;18.56;98.45;101325.25;5067607;28;20036;-88
2022/08/03 03:48:19;;;;;;;12.33;6.20;;;;;;;18.59;98.16;101321.19;5066795;28;20684;-88
2022/08/03 03:50:45;;;;;;;13.73;6.33;;;;;;;18.56;98.23;101319.78;5066997;28;20063;-89
2022/08/03 03:53:12;;;;;;;13.67;6.33;;;;;;;18.55;98.14;101323.63;5066701;28;20120;-91
2022/08/03 03:55:39;;;;;;;15.93;6.70;;;;;;;18.57;98.71;101321.44;5067130;28;20032;-90
2022/08/03 03:58:05;;;;;;;17.53;7.90;;;;;;;18.56;98.54;101317.03;5066584;28;20055;-89
2022/08/03 04:00:30;;;;;;;15.63;6.80;;;;;;;18.55;98.70;101320.88;5066882;28;20036;-88
2022/08/03 04:02:56;;;;;;;14.60;6.67;;;;;;;18.53;98.58;101312.88;5065286;28;20035;-89
2022/08/03 04:11:28;;;;;;;15.93;6.03;;;;;;;18.53;98.47;101323.03;5066942;28;20172;-89
2022/08/03 04:14:19;;;;;;;13.60;6.57;;;;;;;18.52;98.48;101313.97;5066826;28;20039;-89
2022/08/03 04:16:57;;;;;;;14.37;6.13;;;;;;;18.49;97.79;101314.47;5064983;28;20024;-89
2022/08/03 04:19:50;;;;;;;16.87;6.57;;;;;;;18.50;97.83;101316.13;5066560;28;20090;-88
2022/08/03 04:22:18;;;;;;;14.47;6.20;;;;;;;18.49;97.19;101327.38;5066560;28;20020;-88
2022/08/03 04:24:58;;;;;;;14.17;5.97;;;;;;;18.44;97.62;101325.41;5066924;28;20513;-90
2022/08/03 04:27:28;;;;;;;20.67;6.90;;;;;;;18.46;97.44;101322.41;5064485;28;20250;-89
2022/08/03 04:29:56;;;;;;;15.10;6.50;;;;;;;18.48;97.43;101325.69;5063703;28;20064;-88
2022/08/03 04:32:25;;;;;;;13.40;5.90;;;;;;;18.50;97.28;101324.38;5065400;28;20082;-92
2022/08/03 04:34:51;;;;;;;13.00;5.80;;;;;;;18.51;97.50;101330.69;5066573;28;21457;-91
2022/08/03 04:37:34;;;;;;;12.27;6.23;;;;;;;18.51;97.32;101323.28;5064671;28;20053;-89
2022/08/03 04:40:02;;;;;;;15.57;6.63;;;;;;;18.52;97.23;101332.34;5066598;28;20032;-89
2022/08/03 04:42:32;;;;;;;12.50;5.63;;;;;;;18.52;97.11;101326.84;5066088;28;20426;-88
2022/08/03 04:44:57;;;;;;;13.27;6.03;;;;;;;18.51;97.10;101320.53;5064715;28;20032;-89
2022/08/03 04:47:42;;;;;;;13.40;5.77;;;;;;;18.57;96.61;101335.16;5063425;28;20478;-87
2022/08/03 04:50:08;;;;;;;13.82;6.03;;;;;;;18.59;96.52;101333.00;5066048;28;20468;-87
2022/08/03 04:52:34;;;;;;;13.13;5.60;;;;;;;18.60;96.25;101337.38;5065374;28;20036;-88
2022/08/03 04:54:59;;;;;;;13.00;5.60;;;;;;;18.60;96.21;101336.56;5065215;28;20117;-88
2022/08/03 04:57:25;;;;;;;15.00;5.87;;;;;;;18.63;95.91;101338.78;5065087;28;20051;-88
2022/08/03 04:59:53;;;;;;;14.47;5.80;;;;;;;18.65;95.68;101345.69;5064670;28;20181;-89
2022/08/03 05:02:22;;;;;;;17.23;6.40;;;;;;;18.67;95.43;101351.78;5065473;28;20025;-87
2022/08/03 05:04:48;;;;;;;12.23;5.57;;;;;;;18.69;95.24;101349.59;5065548;28;20178;-91
2022/08/03 05:07:14;;;;;;;17.30;6.17;;;;;;;18.72;95.23;101343.59;5065147;28;20078;-87
2022/08/03 05:09:39;;;;;;;15.43;6.10;;;;;;;18.76;94.46;101345.84;5066019;28;20659;-90
2022/08/03 05:12:06;;;;;;;14.37;5.90;;;;;;;18.80;94.22;101352.47;5064230;28;20040;-87
2022/08/03 05:14:37;;;;;;;17.33;5.83;;;;;;;18.81;93.83;101354.16;5065580;28;20044;-87
2022/08/03 05:17:03;;;;;;;13.17;5.60;;;;;;;18.82;93.89;101353.03;5063426;28;20024;-88
2022/08/03 05:19:35;;;;;;;13.87;5.40;;;;;;;18.83;93.32;101354.72;5065430;28;20063;-90
2022/08/03 05:22:00;;;;;;;11.93;5.33;;;;;;;18.80;93.50;101363.47;5063443;28;20667;-88
2022/08/03 05:24:26;;;;;;;13.37;5.90;;;;;;;18.82;93.41;101353.03;5065193;28;20047;-88
2022/08/03 05:26:51;;;;;;;14.70;5.40;;;;;;;18.89;93.21;101362.78;5064570;28;20042;-89
2022/08/03 05:29:17;;;;;;;11.07;5.00;;;;;;;18.95;93.29;101360.94;5065635;28;20036;-89
2022/08/03 05:31:42;;;;;;;11.57;4.97;;;;;;;18.98;93.13;101371.41;5064060;28;20382;-89
2022/08/03 05:34:07;;;;;;;10.93;4.70;;;;;;;19.01;93.04;101362.66;5062917;28;20117;-90
2022/08/03 05:36:33;;;;;;;10.93;4.50;;;;;;;19.08;92.21;101375.38;5063832;28;20453;-86
2022/08/03 05:38:58;;;;;;;13.20;4.88;;;;;;;19.05;91.83;101366.56;5065451;28;20131;-91
2022/08/03 05:41:24;;;;;;;13.30;4.80;;;;;;;19.14;92.11;101380.66;5066001;28;20166;-87
2022/08/03 05:43:53;;;;;;;11.60;4.70;;;;;;;19.17;92.16;101374.66;5065540;28;20036;-89
2022/08/03 05:46:19;;;;;;;11.90;4.93;;;;;;;19.22;91.27;101377.47;5063038;28;20122;-88
2022/08/03 05:48:45;;;;;;;8.33;4.33;;;;;;;19.29;91.26;101376.44;5063234;28;20051;-87
2022/08/03 05:51:11;;;;;;;13.52;4.97;;;;;;;19.31;90.68;101380.59;5055911;28;20468;-87
2022/08/03 05:53:37;;;;;;;10.80;4.60;;;;;;;19.42;90.55;101383.44;5064242;28;20036;-87
2022/08/03 05:56:02;;;;;;;13.45;4.60;;;;;;;19.48;90.48;101379.69;5064917;28;20036;-90
2022/08/03 05:58:28;;;;;;;8.93;4.38;;;;;;;19.53;89.73;101374.25;5066161;28;20040;-87
2022/08/03 06:00:53;;;;;;;10.75;4.18;;;;;;;19.56;89.80;101381.97;5068328;28;20082;-87
2022/08/03 06:03:19;;;;;;;11.57;3.97;;;;;;;19.65;88.88;101383.16;5069129;28;20722;-93
2022/08/03 06:05:44;;;;;;;12.25;3.85;;;;;;;19.66;88.34;101372.97;5068539;28;20129;-86
2022/08/03 06:08:09;;;;;;;14.07;3.60;;;;;;;19.73;88.34;101368.09;5068043;28;20093;-85
2022/08/03 06:10:35;;;;;;;9.00;3.65;;;;;;;19.87;88.63;101379.53;5067846;28;20035;-86
2022/08/03 06:13:00;;;;;;;14.02;3.83;;;;;;;19.94;87.96;101391.16;5068375;28;20499;-88
2022/08/03 06:15:54;;;;;;;14.32;3.97;;;;;;;20.04;87.60;101385.72;5066976;28;20028;-88
2022/08/03 06:18:19;;;;;;;11.35;3.50;;;;;;;20.15;86.84;101385.81;5067574;28;20552;-87
2022/08/03 06:20:44;;;;;;;10.95;3.17;;;;;;;20.22;85.72;101373.50;5068710;28;20075;-90
2022/08/03 06:23:10;;;;;;;10.75;3.40;;;;;;;20.31;85.02;101390.31;5068197;28;20476;-90
2022/08/03 06:25:35;;;;;;;13.45;3.22;;;;;;;20.41;84.37;101387.66;5069219;28;20064;-87
2022/08/03 06:28:00;;;;;;;13.05;3.22;;;;;;;20.51;83.77;101383.31;5068756;28;20037;-89
2022/08/03 06:30:26;;;;;;;10.23;3.30;;;;;;;20.59;83.38;101385.56;5068910;28;20081;-85
2022/08/03 06:32:51;;;;;;;11.85;3.30;;;;;;;20.67;82.97;101382.31;5068515;28;20036;-90
2022/08/03 06:35:16;;;;;;;11.65;2.83;;;;;;;20.78;82.10;101382.38;5067438;28;20659;-88
2022/08/03 06:37:48;;;;;;;13.45;3.22;;;;;;;20.89;82.66;101390.44;5068854;28;20092;-92
2022/08/03 06:40:19;;;;;;;12.65;3.20;;;;;;;20.97;81.94;101391.84;5070706;28;20041;-89
2022/08/03 06:42:45;;;;;;;10.05;2.90;;;;;;;21.01;81.01;101384.72;5068050;28;20036;-89
2022/08/03 06:45:11;;;;;;;11.15;3.38;;;;;;;21.08;80.45;101393.53;5069862;28;20046;-94
2022/08/03 06:47:38;;;;;;;9.93;2.70;;;;;;;21.19;80.22;101397.16;5067792;28;20530;-89
2022/08/03 06:50:05;;;;;;;13.57;3.22;;;;;;;21.28;78.39;101396.66;5067818;28;20507;-88
2022/08/03 06:52:31;;;;;;;10.05;2.88;;;;;;;21.33;78.03;101394.72;5068749;28;20040;-87
2022/08/03 06:54:57;;;;;;;10.32;2.50;;;;;;;21.44;78.03;101397.53;5068873;28;20092;-89
2022/08/03 06:57:22;;;;;;;13.40;3.47;;;;;;;21.46;78.03;101396.16;5070229;28;20185;-90
2022/08/03 06:59:48;;;;;;;13.00;3.17;;;;;;;21.57;78.11;101394.28;5067076;28;20051;-87
2022/08/03 07:02:13;;;;;;;10.68;3.28;;;;;;;21.59;77.26;101386.56;5068972;28;20472;-85
2022/08/03 07:04:38;;;;;;;15.07;3.05;;;;;;;21.75;76.78;101393.75;5067668;28;20093;-85
2022/08/03 07:07:04;;;;;;;12.15;2.70;;;;;;;21.73;76.00;101393.19;5068916;28;20101;-88
2022/08/03 07:09:29;;;;;;;10.85;2.70;;;;;;;21.88;75.70;101394.31;5068622;28;20040;-87
2022/08/03 07:11:55;;;;;;;12.40;2.97;;;;;;;21.92;75.40;101400.94;5068595;28;20029;-90
2022/08/03 07:14:21;;;;;;;12.98;3.38;;;;;;;22.02;74.36;101400.94;5068326;28;20032;-88
2022/08/03 07:16:46;;;;;;;14.95;3.20;;;;;;;22.01;73.66;101399.28;5068759;28;20115;-87
2022/08/03 07:19:12;;;;;;;11.07;3.47;;;;;;;22.05;75.04;101416.94;5067623;28;20076;-88
2022/08/03 07:21:37;;;;;;;11.27;2.95;;;;;;;22.05;73.79;101411.41;5064663;28;20050;-86
2022/08/03 07:24:03;;;;;;;11.77;3.05;;;;;;;22.14;74.16;101403.44;5066693;28;20048;-86
2022/08/03 07:26:28;;;;;;;13.32;3.25;;;;;;;22.25;73.18;101418.06;5067394;28;20198;-87
2022/08/03 07:28:53;;;;;;;10.52;3.00;;;;;;;22.37;73.32;101406.75;5064503;28;20048;-87
2022/08/03 07:31:19;;;;;;;14.50;2.90;;;;;;;22.52;71.97;101417.78;5066488;28;20055;-83
2022/08/03 07:33:45;;;;;;;14.30;3.30;;;;;;;22.65;71.76;101419.13;5066555;28;20155;-87
2022/08/03 07:36:10;;;;;;;18.02;3.15;;;;;;;22.73;70.67;101409.44;5067994;28;20033;-85
2022/08/03 07:38:35;;;;;;;15.73;3.10;;;;;;;22.69;70.51;101414.69;5066768;28;20468;-83
2022/08/03 07:41:01;;;;;;;15.80;2.90;;;;;;;22.76;70.39;101415.25;5067268;28;20351;-82
2022/08/03 07:43:27;;;;;;;14.75;3.10;;;;;;;23.04;70.93;101417.66;5067098;28;20089;-86
2022/08/03 07:45:52;;;;;;;12.63;2.75;;;;;;;23.08;69.43;101402.16;5067382;28;20123;-82
2022/08/03 07:48:17;;;;;;;12.35;2.70;;;;;;;23.00;69.30;101411.84;5067132;28;20154;-83
2022/08/03 07:50:43;;;;;;;13.10;3.05;;;;;;;23.05;68.67;101416.50;5065443;28;20047;-81
2022/08/03 07:53:08;;;;;;;14.30;3.25;;;;;;;23.12;69.01;101413.44;5067029;28;20036;-81
2022/08/03 07:55:34;;;;;;;13.15;3.40;;;;;;;23.25;68.40;101413.72;5066237;28;20071;-82
2022/08/03 07:57:59;;;;;;;12.63;2.90;;;;;;;23.40;68.15;101411.97;5066572;28;20143;-84
2022/08/03 08:00:24;;;;;;;11.43;2.97;;;;;;;23.53;68.03;101408.56;5066670;28;20032;-84
2022/08/03 08:02:49;;;;;;;10.00;2.80;;;;;;;23.54;67.71;101413.00;5066500;28;20556;-85
2022/08/03 08:05:15;;;;;;;12.00;2.80;;;;;;;23.79;66.59;101404.81;5066206;28;20700;-83
2022/08/03 08:07:40;;;;;;;13.90;2.70;;;;;;;23.80;65.44;101412.81;5066875;28;20483;-86
2022/08/03 08:10:08;;;;;;;12.32;2.72;;;;;;;23.88;65.33;101405.84;5065314;28;20033;-84
2022/08/03 08:12:34;;;;;;;11.10;3.20;;;;;;;23.96;65.32;101408.00;5067094;28;20040;-86
2022/08/03 08:15:00;;;;;;;11.40;2.75;;;;;;;24.01;65.61;101415.47;5067106;28;20036;-82
2022/08/03 08:17:26;;;;;;;11.45;2.75;;;;;;;24.06;64.96;101401.59;5066862;28;20531;-81
2022/08/03 08:19:51;;;;;;;11.13;2.65;;;;;;;24.21;63.80;101409.75;5064363;28;20054;-85
2022/08/03 08:22:16;;;;;;;11.07;2.58;;;;;;;24.36;64.33;101410.75;5066416;28;20571;-84
2022/08/03 08:24:43;;;;;;;15.30;2.95;;;;;;;24.46;62.78;101415.34;5064404;28;20048;-83
2022/08/03 08:27:10;;;;;;;14.10;2.70;;;;;;;24.55;63.31;101408.06;5066918;28;20047;-83
2022/08/03 08:29:37;;;;;;;12.85;2.50;;;;;;;24.82;62.83;101409.44;5065638;28;20040;-82
2022/08/03 08:32:02;;;;;;;15.73;2.70;;;;;;;24.97;62.13;101409.28;5065345;28;20032;-80
2022/08/03 08:34:28;;;;;;;11.00;2.80;;;;;;;24.96;60.38;101412.34;5063250;28;20054;-80
2022/08/03 08:36:53;;;;;;;14.32;2.92;;;;;;;25.33;59.19;101400.50;5065178;28;20050;-82
2022/08/03 08:39:18;;;;;;;12.32;2.88;;;;;;;25.56;58.56;101411.84;5064678;28;20067;-81
2022/08/03 08:41:44;;;;;;;13.45;2.65;;;;;;;25.72;57.81;101412.47;5066100;28;20766;-84
2022/08/03 08:44:09;;;;;;;12.43;2.60;;;;;;;25.91;55.85;101410.47;5065662;28;20140;-82
2022/08/03 08:46:37;;;;;;;12.15;2.70;;;;;;;25.89;56.19;101403.56;5064697;28;20047;-80
2022/08/03 08:49:02;;;;;;;12.27;2.58;;;;;;;26.17;57.47;101403.72;5063901;28;20484;-80
2022/08/03 08:51:36;;;;;;;13.05;2.60;;;;;;;26.35;54.83;101408.38;5064657;28;20123;-81
2022/08/03 08:54:06;;;;;;;13.90;2.67;;;;;;;26.44;54.64;101412.09;5064657;28;20043;-83
2022/08/03 08:56:32;;;;;;;12.50;2.67;;;;;;;26.76;53.79;101410.41;5065801;28;20089;-82
2022/08/03 08:58:59;;;;;;;13.52;2.70;;;;;;;26.89;53.40;101405.16;5066018;28;20042;-80
2022/08/03 09:01:25;;;;;;;14.52;2.95;;;;;;;27.03;54.54;101399.59;5064897;28;20143;-81
2022/08/03 09:03:52;;;;;;;14.68;2.85;;;;;;;27.24;51.58;101409.16;5065984;28;20574;-81
2022/08/03 09:06:18;;;;;;;13.48;3.00;;;;;;;27.39;51.40;101408.00;5065226;28;20128;-81
2022/08/03 09:08:44;;;;;;;12.65;2.78;;;;;;;27.54;51.12;101400.44;5064520;28;20039;-82
2022/08/03 09:11:09;;;;;;;10.98;2.65;;;;;;;27.74;51.21;101402.75;5066192;28;20035;-80
2022/08/03 09:13:35;;;;;;;14.98;3.00;;;;;;;28.08;50.36;101406.97;5065563;28;20123;-82
2022/08/03 09:16:18;;;;;;;17.63;2.60;;;;;;;28.42;51.28;101411.09;5065402;28;20123;-81
2022/08/03 09:18:46;;;;;;;17.25;2.60;;;;;;;28.47;48.49;101413.72;5061705;28;20637;-82
2022/08/03 09:21:16;;;;;;;12.65;3.40;;;;;;;28.41;47.36;101401.09;5060156;28;20467;-83
2022/08/03 09:23:46;;;;;;;14.85;2.70;;;;;;;28.47;47.75;101415.69;5066329;28;20040;-82
2022/08/03 09:26:12;;;;;;;13.70;2.60;;;;;;;28.58;46.94;101405.09;5058136;28;20039;-79
2022/08/03 09:28:38;;;;;;;9.98;2.53;;;;;;;28.67;46.54;101411.56;5060597;28;20024;-84
2022/08/03 09:31:03;;;;;;;13.90;2.65;;;;;;;28.87;46.90;101417.69;5061015;28;20051;-82
2022/08/03 09:33:28;;;;;;;16.63;2.90;;;;;;;28.80;46.26;101405.06;5060494;28;20464;-85
2022/08/03 09:35:55;;;;;;;18.48;2.88;;;;;;;28.74;45.84;101419.47;5060872;28;20036;-81
2022/08/03 09:38:27;;;;;;;14.57;2.47;;;;;;;29.01;46.56;101406.41;5061827;28;20054;-84
2022/08/03 09:40:53;;;;;;;12.65;2.75;;;;;;;28.96;45.33;101415.75;5059844;28;20873;-83
2022/08/03 09:43:19;;;;;;;21.02;3.90;;;;;;;28.74;46.37;101411.91;5060960;28;20499;-82
2022/08/03 09:45:44;;;;;;;11.23;2.45;;;;;;;29.00;46.88;101407.59;5059437;28;20115;-84
2022/08/03 09:48:28;;;;;;;9.93;2.50;;;;;;;29.23;48.08;101409.09;5061441;28;20028;-84
2022/08/03 09:51:04;;;;;;;12.65;2.95;;;;;;;28.99;47.07;101409.53;5061623;28;20101;-83
2022/08/03 09:53:29;;;;;;;12.45;2.80;;;;;;;29.04;45.65;101409.38;5061631;28;20411;-83
2022/08/03 09:56:00;;;;;;;15.18;2.92;;;;;;;29.11;46.16;101412.50;5060486;28;20381;-86
2022/08/03 09:58:28;;;;;;;14.75;2.60;;;;;;;29.17;45.52;101412.38;5060503;28;20098;-82
2022/08/03 10:01:02;;;;;;;15.57;3.10;;;;;;;29.42;46.18;101417.19;5060181;28;20113;-84
2022/08/03 10:03:29;;;;;;;16.25;2.63;;;;;;;29.61;44.47;101413.28;5060816;28;20119;-84
2022/08/03 10:05:55;;;;;;;18.08;3.20;;;;;;;29.60;44.45;101408.84;5058484;28;20123;-84
2022/08/03 10:08:21;;;;;;;19.02;3.75;;;;;;;29.91;43.75;101419.84;5060307;28;21477;-81
2022/08/03 10:10:49;;;;;;;14.40;2.92;;;;;;;30.06;43.47;101412.94;5057344;28;20036;-84
2022/08/03 10:13:16;;;;;;;13.82;2.90;;;;;;;30.26;44.40;101402.19;5058129;28;21153;-83
2022/08/03 10:15:41;;;;;;;14.90;3.20;;;;;;;30.18;43.94;101411.41;5058228;28;20159;-81
2022/08/03 10:18:07;;;;;;;15.68;3.20;;;;;;;30.12;43.12;101402.41;5058235;28;20491;-82
2022/08/03 10:20:40;;;;;;;17.58;3.15;;;;;;;30.23;43.74;101405.66;5056135;28;20519;-82
2022/08/03 10:23:07;;;;;;;;;;;;;;;30.97;44.23;101409.19;5058616;28;20082;-85
2022/08/03 10:25:33;;;;;;;16.88;2.95;;;;;;;30.69;41.92;101398.44;5053142;28;20291;-83
2022/08/03 10:28:03;;;;;;;17.55;3.72;;;;;;;30.19;41.75;101404.69;5058352;28;20043;-84
2022/08/03 10:30:30;;;;;;;15.13;3.08;;;;;;;30.40;41.87;101408.41;5057800;28;20038;-83
2022/08/03 10:33:06;;;;;;;18.95;3.58;;;;;;;30.40;42.67;101402.00;5055621;28;20040;-81
2022/08/03 10:35:31;;;;;;;15.98;3.15;;;;;;;30.26;41.96;101394.66;5055710;28;20028;-85
2022/08/03 10:37:59;;;;;;;16.02;3.30;;;;;;;30.53;42.00;101389.00;5057491;28;20043;-85
2022/08/03 10:40:28;;;;;;;18.92;3.63;;;;;;;30.45;41.28;101388.69;5057785;28;20424;-85
2022/08/03 10:42:58;;;;;;;16.35;3.05;;;;;;;30.50;40.69;101387.69;5054124;28;20420;-83
2022/08/03 10:45:25;;;;;;;16.23;3.40;;;;;;;30.50;40.80;101389.66;5063589;28;20383;-82
2022/08/03 10:48:13;;;;;;;18.92;3.28;;;;;;;30.94;41.53;101388.28;5053344;28;20036;-84
2022/08/03 10:50:43;;;;;;;18.15;3.20;;;;;;;30.80;40.45;101396.09;5060255;28;20032;-82
2022/08/03 10:53:08;;;;;;;19.80;3.30;;;;;;;30.63;40.83;101371.84;5063256;28;20128;-81
2022/08/03 10:58:42;;;;;;;20.08;3.60;;;;;;;30.91;40.29;101376.94;5063155;28;20070;-83
2022/08/03 11:01:09;;;;;;;14.40;3.33;;;;;;;30.95;39.03;101377.91;5062993;28;21794;-83
2022/08/03 11:03:54;;;;;;;19.35;3.13;;;;;;;31.11;40.45;101373.41;5062544;28;20032;-85
2022/08/03 11:06:20;;;;;;;17.73;3.30;;;;;;;31.04;38.27;101364.72;5063510;28;20039;-83
2022/08/03 11:08:47;;;;;;;20.48;3.92;;;;;;;31.35;38.48;101369.13;5063927;28;20040;-85
2022/08/03 11:11:15;;;;;;;15.75;3.22;;;;;;;31.13;37.88;101364.66;5063288;28;20140;-82
2022/08/03 11:13:55;;;;;;;17.70;3.05;;;;;;;31.44;39.05;101355.03;5063944;28;20028;-84
2022/08/03 11:16:22;;;;;;;15.90;2.95;;;;;;;31.26;37.52;101365.56;5063564;28;20119;-82
2022/08/03 11:19:06;;;;;;;12.38;2.95;;;;;;;31.49;38.00;101347.25;5063083;28;20112;-83
2022/08/03 11:21:49;;;;;;;;;;;;;;;31.92;38.49;101348.03;5063195;28;20101;-83
2022/08/03 11:24:39;;;;;;;16.00;3.30;;;;;;;31.79;38.15;101354.75;5062920;28;19927;-83
2022/08/03 11:27:16;;;;;;;14.50;2.83;;;;;;;31.78;38.46;101348.34;5063083;28;20055;-82
2022/08/03 11:29:59;;;;;;;15.77;2.78;;;;;;;31.60;38.16;101363.66;5063644;28;20709;-82
2022/08/03 11:32:36;;;;;;;19.15;2.90;;;;;;;31.52;38.74;101356.94;5066528;28;20042;-84
2022/08/03 11:35:22;;;;;;;10.55;2.50;;;;;;;31.31;39.26;101348.56;5067210;28;20438;-81